Data for 08/14/2009

Time Sea-Level Adjusted Pressure Absolute Pressure Temperature Relative Humidity Dew Point   
(mb) (inHg) (mb) (inHg) (C) (F) (%) (C) (F)
00:05 1019 30.09 848 25.04 12.3 54.1 79 8.8 47.8
00:10 1018 30.06 848 25.04 12.3 54.1 79 8.8 47.9
00:15 1018 30.06 848 25.04 12 53.5 82 8.9 48.1
00:20 1019 30.09 848 25.04 11.6 52.9 83 8.9 48
00:25 1019 30.09 848 25.04 11.5 52.8 84 8.9 48.1
00:30 1018 30.06 848 25.04 11.5 52.6 84 9 48.1
00:35 1018 30.06 848 25.04 11.5 52.7 84 8.9 48.1
00:40 1018 30.06 848 25.04 11.6 52.8 84 9 48.2
00:45 1018 30.06 848 25.04 11.6 53 84 9 48.3
00:50 1018 30.06 848 25.04 11.7 53.1 84 9.1 48.4
00:55 1018 30.06 848 25.04 11.8 53.2 84 9.1 48.5
01:00 1018 30.06 848 25.04 11.8 53.2 84 9.2 48.5
01:05 1018 30.06 848 25.04 11.8 53.2 84 9.2 48.5
01:10 1018 30.06 848 25.04 11.8 53.2 83 9.1 48.3
01:15 1018 30.06 848 25.04 11.8 53.2 83 9 48.3
01:20 1018 30.06 848 25.04 11.8 53.2 83 9 48.3
01:25 1018 30.06 847 25.01 11.7 53.1 84 9.1 48.4
01:30 1018 30.06 847 25.01 11.7 53.1 84 9 48.3
01:35 1018 30.06 847 25.01 11.7 53.1 83 8.9 48.1
01:40 1018 30.06 847 25.01 11.7 53 83 9 48.1
01:45 1018 30.06 847 25.01 11.6 52.9 83 8.8 47.9
01:50 1018 30.06 847 25.01 11.6 52.9 83 8.8 47.9
01:55 1018 30.06 847 25.01 11.4 52.6 83 8.7 47.7
02:00 1018 30.06 848 25.04 11.4 52.5 84 8.8 47.8
02:05 1018 30.06 848 25.04 11.3 52.4 84 8.7 47.7
02:10 1018 30.06 847 25.01 11.2 52.1 85 8.7 47.7
02:15 1018 30.06 847 25.01 11.1 51.9 85 8.7 47.6
02:20 1018 30.06 847 25.01 11 51.7 86 8.7 47.6
02:25 1018 30.06 847 25.01 10.8 51.5 86 8.5 47.4
02:30 1018 30.06 847 25.01 10.6 51.1 86 8.4 47.2
02:35 1018 30.06 847 25.01 10.5 50.9 86 8.2 46.8
02:40 1018 30.06 847 25.01 10.6 51 85 8.1 46.5
02:45 1018 30.06 847 25.01 10.6 51.1 84 8 46.4
02:50 1018 30.06 847 25.01 10.6 51.1 84 8.1 46.5
02:55 1018 30.06 847 25.01 10.5 50.9 84 8 46.4
03:00 1018 30.06 847 25.01 10.4 50.6 86 8.2 46.7
03:05 1018 30.06 847 25.01 10.3 50.6 88 8.4 47.1
03:10 1018 30.06 847 25.01 10.6 51 87 8.4 47.2
03:15 1018 30.06 847 25.01 10.8 51.4 86 8.4 47.2
03:20 1018 30.06 847 25.01 10.6 51.2 85 8.3 47
03:25 1018 30.06 847 25.01 10.5 50.9 86 8.3 46.9
03:30 1018 30.06 847 25.01 10.4 50.7 86 8.2 46.7
03:35 1018 30.06 847 25.01 10.3 50.5 86 8.1 46.6
03:40 1018 30.06 847 25.01 10.2 50.4 85 7.9 46.2
03:45 1018 30.06 847 25.01 10.3 50.5 85 7.9 46.3
03:50 1018 30.06 847 25.01 10.2 50.3 84 7.6 45.8
03:55 1018 30.06 847 25.01 10.2 50.3 85 7.7 45.9
04:00 1018 30.06 847 25.01 10.1 50.2 85 7.7 45.8
04:05 1018 30.06 847 25.01 10 50 85 7.6 45.7
04:10 1018 30.06 847 25.01 9.7 49.5 85 7.4 45.4
04:15 1018 30.06 847 25.01 9.9 49.9 84 7.3 45.1
04:20 1018 30.06 847 25.01 9.9 49.9 84 7.4 45.4
04:25 1018 30.06 847 25.01 9.6 49.3 86 7.4 45.2
04:30 1018 30.06 847 25.01 9.4 48.9 87 7.3 45.2
04:35 1018 30.06 847 25.01 9.3 48.7 86 7.1 44.8
04:40 1018 30.06 847 25.01 9.2 48.5 86 7 44.6
04:45 1018 30.06 847 25.01 9.2 48.6 87 7.2 45
04:50 1018 30.06 847 25.01 9.1 48.4 87 7 44.6
04:55 1018 30.06 847 25.01 8.9 48 88 7 44.6
05:00 1018 30.06 847 25.01 8.5 47.2 90 6.9 44.3
05:05 1018 30.06 847 25.01 8.4 47.2 89 6.7 44.1
05:10 1018 30.06 847 25.01 8.5 47.3 89 6.8 44.2
05:15 1018 30.06 847 25.01 8.6 47.4 88 6.7 44.1
05:20 1017 30.03 847 25.01 8.4 47.2 89 6.8 44.2
05:25 1018 30.06 847 25.01 8.4 47.2 89 6.7 44.1
05:30 1017 30.03 847 25.01 8.4 47 89 6.7 44
05:35 1017 30.03 847 25.01 8.3 47 89 6.7 44
05:40 1017 30.03 847 25.01 8.6 47.4 89 6.8 44.2
05:45 1017 30.03 847 25.01 8.5 47.4 89 6.8 44.2
05:50 1017 30.03 847 25.01 8.5 47.4 89 6.9 44.4
05:55 1017 30.03 847 25.01 8.5 47.3 90 6.9 44.4
06:00 1017 30.03 846 24.98 8.6 47.4 89 6.9 44.4
06:05 1017 30.03 846 24.98 8.8 47.8 89 7 44.6
06:10 1017 30.03 846 24.98 8.8 47.8 90 7.1 44.9
06:15 1017 30.03 846 24.98 8.7 47.6 90 7.1 44.8
06:20 1017 30.03 846 24.98 8.8 47.9 89 7.1 44.8
06:25 1017 30.03 847 25.01 9 48.2 88 7.2 44.9
06:30 1018 30.06 847 25.01 9.3 48.8 86 7.2 44.9
06:35 1018 30.06 847 25.01 9.7 49.5 86 7.4 45.4
06:40 1018 30.06 847 25.01 9.9 49.7 84 7.4 45.2
06:45 1018 30.06 847 25.01 10 50 83 7.3 45.2
06:50 1018 30.06 847 25.01 10.1 50.2 84 7.5 45.4
06:55 1018 30.06 847 25.01 10.2 50.3 83 7.5 45.4
07:00 1018 30.06 847 25.01 10.3 50.6 83 7.6 45.7
07:05 1018 30.06 847 25.01 10.6 51 82 7.7 45.8
07:10 1018 30.06 848 25.04 10.9 51.5 81 7.8 46
07:15 1018 30.06 848 25.04 11 51.8 81 7.9 46.2
07:20 1018 30.06 848 25.04 10.9 51.5 82 8 46.3
07:25 1019 30.09 848 25.04 10.6 51.1 83 7.8 46.1
07:30 1019 30.09 848 25.04 10.5 50.8 83 7.8 46
07:35 1019 30.09 848 25.04 10.6 51.1 83 7.9 46.2
07:40 1019 30.09 848 25.04 10.7 51.2 82 7.8 46.1
07:45 1019 30.09 848 25.04 10.8 51.5 82 7.9 46.3
07:50 1019 30.09 848 25.04 10.9 51.6 83 8.2 46.7
07:55 1019 30.09 848 25.04 10.7 51.2 85 8.2 46.8
08:00 1019 30.09 848 25.04 10.7 51.2 85 8.3 47
08:05 1019 30.09 848 25.04 10.7 51.2 86 8.5 47.3
08:10 1019 30.09 848 25.04 10.7 51.2 86 8.5 47.2
08:15 1019 30.09 848 25.04 10.8 51.4 86 8.5 47.3
08:20 1019 30.09 848 25.04 11 51.8 85 8.6 47.5
08:25 1018 30.06 848 25.04 11 51.8 85 8.5 47.4
08:30 1018 30.06 848 25.04 10.9 51.5 86 8.7 47.6
08:35 1018 30.06 848 25.04 11.1 52 84 8.5 47.3
08:40 1018 30.06 847 25.01 11 51.9 85 8.6 47.5
08:45 1018 30.06 847 25.01 11.2 52.2 84 8.6 47.5
08:50 1018 30.06 847 25.01 11.6 52.9 83 8.8 47.8
08:55 1018 30.06 847 25.01 12.5 54.5 80 9.1 48.4
09:00 1018 30.06 847 25.01 12.5 54.6 82 9.5 49.2
09:05 1018 30.06 848 25.04 12.2 54 83 9.4 48.9
09:10 1018 30.06 847 25.01 12 53.6 83 9.2 48.5
09:15 1018 30.06 847 25.01 12.2 53.9 81 9.1 48.3
09:20 1018 30.06 847 25.01 12.1 53.8 80 8.9 48
09:25 1018 30.06 847 25.01 12.1 53.8 81 8.9 48
09:30 1018 30.06 847 25.01 12.5 54.4 79 8.9 48.1
09:35 1017 30.03 847 25.01 13 55.3 77 9.1 48.4
09:40 1017 30.03 847 25.01 13.7 56.7 74 9.2 48.6
09:45 1017 30.03 847 25.01 14.6 58.3 71 9.4 48.9
09:50 1017 30.03 847 25.01 15.1 59.2 70 9.7 49.4
09:55 1017 30.03 847 25.01 15.2 59.3 70 9.8 49.6
10:00 1018 30.06 847 25.01 14.8 58.7 71 9.8 49.6
10:05 1017 30.03 846 24.98 14.4 58 73 9.8 49.6
10:10 1017 30.03 846 24.98 14.4 57.9 73 9.7 49.5
10:15 1018 30.06 847 25.01 14.4 58 75 10 50.1
10:20 1018 30.06 847 25.01 14.4 57.9 75 10.1 50.1
10:25 1018 30.06 847 25.01 14.3 57.7 77 10.3 50.5
10:30 1018 30.06 847 25.01 14.1 57.3 77 10.1 50.1
10:35 1017 30.03 847 25.01 13.9 57 80 10.6 51
10:40 1017 30.03 846 24.98 13.9 56.9 82 10.8 51.4
10:45 1017 30.03 846 24.98 14.2 57.5 79 10.6 51.2
10:50 1017 30.03 846 24.98 14.5 58.2 76 10.4 50.7
10:55 1017 30.03 846 24.98 15.2 59.3 78 11.4 52.5
11:00 1017 30.03 846 24.98 15.2 59.3 78 11.4 52.5
11:05 1017 30.03 846 24.98 15.3 59.5 75 10.9 51.6
11:10 1017 30.03 846 24.98 15.5 59.9 73 10.7 51.3
11:15 1017 30.03 846 24.98 15.9 60.7 72 10.9 51.7
11:20 1018 30.06 847 25.01 15.9 60.5 71 10.6 51.2
11:25 1018 30.06 847 25.01 15.6 60 70 10.2 50.4
11:30 1017 30.03 846 24.98 15.4 59.6 75 11 51.8
11:35 1017 30.03 846 24.98 15.4 59.7 77 11.3 52.4
11:40 1017 30.03 846 24.98 15.9 60.6 72 10.9 51.7
11:45 1017 30.03 846 24.98 16.1 61 71 10.9 51.6
11:50 1017 30.03 846 24.98 16.2 61.2 72 11.2 52.1
11:55 1017 30.03 846 24.98 16 60.8 74 11.4 52.6
12:00 1017 30.03 846 24.98 16.4 61.4 73 11.5 52.6
12:05 1017 30.03 846 24.98 16.9 62.3 65 10.3 50.6
12:10 1017 30.03 846 24.98 16.7 62 69 10.9 51.7
12:15 1017 30.03 846 24.98 16.8 62.2 67 10.6 51.2
12:20 1017 30.03 846 24.98 17.1 62.8 67 11 51.8
12:25 1017 30.03 846 24.98 17 62.6 63 10 50.1
12:30 1017 30.03 846 24.98 16.6 61.9 66 10.3 50.6
12:35 1017 30.03 846 24.98 16.5 61.7 66 10.3 50.5
12:40 1016 30 846 24.98 16.5 61.7 68 10.7 51.2
12:45 1016 30 845 24.95 17.1 62.8 68 11.1 52.1
12:50 1016 30 845 24.95 17.2 62.9 69 11.5 52.7
12:55 1016 30 845 24.95 17.1 62.8 66 10.7 51.3
13:00 1016 30 845 24.95 17.4 63.3 63 10.4 50.6
13:05 1016 30 846 24.98 18 64.5 61 10.5 50.8
13:10 1016 30 846 24.98 17.8 64 65 11.2 52.2
13:15 1016 30 845 24.95 17.7 63.8 69 12 53.7
13:20 1016 30 845 24.95 17.1 62.8 71 11.9 53.4
13:25 1016 30 845 24.95 17.1 62.8 69 11.5 52.8
13:30 1016 30 845 24.95 17.2 62.9 67 11.1 52
13:35 1016 30 845 24.95 17.5 63.5 68 11.6 52.9
13:40 1016 30 845 24.95 16.9 62.4 72 11.9 53.4
13:45 1015 29.97 845 24.95 16.3 61.3 73 11.4 52.6
13:50 1015 29.97 845 24.95 16.7 62.1 70 11.3 52.4
13:55 1015 29.97 844 24.92 16.7 62.1 71 11.4 52.6
14:00 1015 29.97 844 24.92 16.4 61.5 76 12.2 54
14:05 1015 29.97 844 24.92 15.8 60.4 78 12 53.6
14:10 1015 29.97 844 24.92 15.7 60.3 78 11.9 53.4
14:15 1015 29.97 844 24.92 15.7 60.2 79 12 53.7
14:20 1014 29.94 843 24.89 15.1 59.2 81 11.8 53.3
14:25 1015 29.97 845 24.95 15.2 59.3 80 11.8 53.2
14:30 1017 30.03 846 24.98 15.2 59.3 84 12.6 54.7
14:35 1016 30 845 24.95 14.9 58.7 90 13.3 55.9
14:40 1015 29.97 845 24.95 15.8 60.4 86 13.4 56.1
14:45 1015 29.97 844 24.92 16.2 61.2 78 12.5 54.5
14:50 1015 29.97 845 24.95 15.9 60.6 80 12.4 54.4
14:55 1016 30 845 24.95 15.8 60.4 72 10.7 51.3
15:00 1016 30 845 24.95 15.4 59.6 77 11.3 52.3
15:05 1016 30 845 24.95 14.9 58.8 78 11.2 52.1
15:10 1016 30 845 24.95 14.7 58.4 82 11.7 53
15:15 1016 30 845 24.95 14.6 58.3 85 12.1 53.8
15:20 1016 30 845 24.95 14.5 58.1 87 12.4 54.4
15:25 1015 29.97 845 24.95 14.6 58.3 87 12.5 54.5
15:30 1015 29.97 845 24.95 14.8 58.6 87 12.6 54.6
15:35 1016 30 846 24.98 14.8 58.6 84 12.1 53.8
15:40 1017 30.03 846 24.98 14.5 58.2 86 12.3 54.1
15:45 1016 30 845 24.95 14.7 58.4 85 12.2 53.9
15:50 1016 30 845 24.95 14.7 58.5 82 11.6 52.9
15:55 1016 30 845 24.95 14.6 58.3 81 11.4 52.5
16:00 1016 30 845 24.95 14.3 57.7 81 11 51.8
16:05 1016 30 846 24.98 14.1 57.4 83 11.3 52.4
16:10 1016 30 846 24.98 14.1 57.5 84 11.5 52.7
16:15 1016 30 846 24.98 14.3 57.7 81 11.1 51.9
16:20 1016 30 846 24.98 14.5 58.2 82 11.5 52.6
16:25 1016 30 846 24.98 14.6 58.4 80 11.3 52.4
16:30 1017 30.03 846 24.98 14.8 58.6 78 11 51.7
16:35 1017 30.03 846 24.98 14.8 58.6 80 11.4 52.5
16:40 1017 30.03 846 24.98 14.6 58.3 83 11.8 53.2
16:45 1017 30.03 846 24.98 14.4 57.9 82 11.3 52.4
16:50 1016 30 845 24.95 14.2 57.6 84 11.5 52.8
16:55 1016 30 846 24.98 14.2 57.5 84 11.5 52.6
17:00 1017 30.03 846 24.98 14.4 58 77 10.6 51
17:05 1017 30.03 846 24.98 14.8 58.6 73 10.1 50.1
17:10 1017 30.03 846 24.98 14.8 58.6 77 10.9 51.6
17:15 1017 30.03 846 24.98 14.8 58.6 75 10.4 50.7
17:20 1017 30.03 846 24.98 15 59 75 10.7 51.2
17:25 1017 30.03 846 24.98 15.2 59.3 73 10.3 50.6
17:30 1017 30.03 846 24.98 15 59 77 11 51.9
17:35 1017 30.03 846 24.98 14.9 58.9 76 10.7 51.3
17:40 1017 30.03 846 24.98 15 59 77 11.1 52
17:45 1017 30.03 846 24.98 15 59 79 11.5 52.6
17:50 1017 30.03 846 24.98 14.7 58.5 75 10.5 50.9
17:55 1017 30.03 846 24.98 14.3 57.8 81 11.2 52.2
18:00 1017 30.03 847 25.01 13.7 56.7 85 11.2 52.2
18:05 1018 30.06 847 25.01 13.2 55.7 88 11.3 52.3
18:10 1018 30.06 847 25.01 12.9 55.1 90 11.2 52.2
18:15 1018 30.06 847 25.01 12.7 54.8 90 11.1 52.1
18:20 1018 30.06 847 25.01 12.3 54.2 91 10.8 51.5
18:25 1018 30.06 847 25.01 11.5 52.6 92 10.3 50.5
18:30 1017 30.03 847 25.01 11.1 51.9 94 10.2 50.3
18:35 1017 30.03 847 25.01 11 51.7 94 10 50
18:40 1017 30.03 847 25.01 11 51.8 94 10.1 50.2
18:45 1018 30.06 847 25.01 11.4 52.4 93 10.2 50.4
18:50 1017 30.03 847 25.01 11.6 52.8 91 10.2 50.4
18:55 1017 30.03 847 25.01 11.6 52.8 93 10.4 50.8
19:00 1017 30.03 847 25.01 11.7 53 92 10.4 50.7
19:05 1017 30.03 847 25.01 11.7 53.1 91 10.3 50.6
19:10 1018 30.06 847 25.01 11.7 53 92 10.4 50.7
19:15 1018 30.06 847 25.01 11.5 52.8 93 10.4 50.7
19:20 1018 30.06 847 25.01 11.5 52.7 93 10.4 50.8
19:25 1018 30.06 847 25.01 11.5 52.7 93 10.3 50.6
19:30 1018 30.06 847 25.01 11.5 52.6 92 10.3 50.5
19:35 1018 30.06 847 25.01 11.4 52.6 91 10 50.1
19:40 1018 30.06 847 25.01 11.3 52.3 92 10 50.1
19:45 1018 30.06 847 25.01 11.2 52.2 91 9.8 49.7
19:50 1018 30.06 847 25.01 11.1 51.9 92 9.8 49.7
19:55 1018 30.06 848 25.04 11.1 51.9 92 9.9 49.8
20:00 1018 30.06 848 25.04 10.9 51.7 93 9.8 49.7
20:05 1018 30.06 848 25.04 10.8 51.4 93 9.7 49.5
20:10 1018 30.06 848 25.04 10.7 51.2 94 9.7 49.5
20:15 1018 30.06 848 25.04 10.6 51.1 94 9.6 49.3
20:20 1018 30.06 848 25.04 10.7 51.2 92 9.5 49
20:25 1019 30.09 848 25.04 10.7 51.2 92 9.4 49
20:30 1019 30.09 848 25.04 10.7 51.2 92 9.4 49
20:35 1019 30.09 848 25.04 10.6 51 93 9.4 49
20:40 1019 30.09 848 25.04 10.6 51.1 92 9.4 48.9
20:45 1019 30.09 848 25.04 10.7 51.2 93 9.6 49.2
20:50 1019 30.09 848 25.04 10.8 51.5 92 9.6 49.2
20:55 1019 30.09 848 25.04 10.7 51.2 92 9.5 49.1
21:00 1019 30.09 848 25.04 10.7 51.2 92 9.4 49
21:05 1019 30.09 848 25.04 10.6 51.2 89 8.9 48
21:10 1019 30.09 848 25.04 10.7 51.3 89 8.9 48.1
21:15 1019 30.09 848 25.04 10.7 51.2 90 9.1 48.5
21:20 1019 30.09 848 25.04 10.5 50.9 88 8.6 47.5
21:25 1019 30.09 848 25.04 10.3 50.6 91 8.9 48
21:30 1019 30.09 848 25.04 10.3 50.5 91 9 48.2
21:35 1019 30.09 848 25.04 10.3 50.5 90 8.7 47.7
21:40 1019 30.09 848 25.04 10.2 50.4 91 8.8 47.8
21:45 1019 30.09 848 25.04 10.2 50.4 89 8.4 47.2
21:50 1019 30.09 848 25.04 10.1 50.2 89 8.4 47.1
21:55 1019 30.09 848 25.04 10.1 50.1 88 8.2 46.8
22:00 1019 30.09 848 25.04 10 50 88 8.2 46.7
22:05 1019 30.09 848 25.04 9.9 49.8 90 8.3 47
22:10 1019 30.09 848 25.04 9.8 49.6 91 8.4 47.1
22:15 1019 30.09 849 25.07 9.7 49.4 91 8.3 47
22:20 1019 30.09 848 25.04 9.6 49.3 89 8 46.4
22:25 1019 30.09 848 25.04 9.7 49.4 90 8.1 46.6
22:30 1019 30.09 849 25.07 9.7 49.4 90 8.2 46.7
22:35 1019 30.09 849 25.07 9.6 49.3 91 8.2 46.7
22:40 1019 30.09 849 25.07 9.6 49.3 90 8 46.4
22:45 1019 30.09 849 25.07 9.7 49.4 89 7.9 46.2
22:50 1019 30.09 848 25.04 9.7 49.5 89 8 46.4
22:55 1019 30.09 849 25.07 9.8 49.6 88 7.9 46.1
23:00 1019 30.09 849 25.07 9.7 49.5 89 8 46.4
23:05 1019 30.09 849 25.07 9.6 49.4 89 7.9 46.2
23:10 1019 30.09 848 25.04 9.6 49.3 90 8 46.4
23:15 1019 30.09 848 25.04 9.5 49.2 88 7.7 45.9
23:20 1019 30.09 848 25.04 9.6 49.2 87 7.4 45.4
23:25 1019 30.09 849 25.07 9.7 49.4 86 7.4 45.4
23:30 1019 30.09 848 25.04 9.6 49.4 86 7.5 45.4
23:35 1019 30.09 848 25.04 9.6 49.3 88 7.7 45.8
23:40 1019 30.09 848 25.04 9.5 49.1 90 7.9 46.2
23:45 1019 30.09 848 25.04 9.5 49 87 7.5 45.5
23:50 1019 30.09 849 25.07 9.6 49.2 87 7.6 45.6
23:55 1019 30.09 849 25.07 9.5 49.1 88 7.6 45.7
24:00 1019 30.09 849 25.07 9.5 49.1 87 7.5 45.4